USTRANSCOM 8618




RODN
Kadena Air Base
Kadena, JP
PAED
Elmendorf Air Force Base
Elmendorf, US

Activity Log

Date Flight Route Aircraft Duration
No Flights Yet

Route Details

Aircraft Information
Group: Boeing Common
Types: B752,B762,B763
Route Data
Demand: V
Distance: 3817nm
Duration: 8h 40m
Recm'd Route: JILEE ONC B597 RURIK Y53 MADOG B597 SUC V53 KTE V38 KMC Y381 GOLDO Y19 MRE Y13 TIKYU V13 CHE V7 AWE V8 MVE PASRO A590 PLADO A590 HAMND SPAIR GRUUB1
Origin Wx: RODN 252156Z AUTO 07004KT 10SM FEW033 12/10 A3009 RMK AO2 SLP197 T01190100 $
Dest. Wx: PAED 252222Z 17005KT 7SM -SN FEW007 BKN020 OVC055 M01/M02 A3005 RMK AO2A SLP174
Notes: USTRANSCOM CONTRACT FLIGHT

Financial History
Total Freight: 0lbs
Average Load: 0lbs/flt
Fuel Used: 0lbs
Avg. Fuel Used: 0lbs/flt
Fuel Expense: $0
Avg. Fuel Expense: $0
Avg. Fuel Cost: $0/lbs
Total Gross Income: $0
Pilot Pay: $0
Total Expenses: $0
Total Revenue: $0
Average Revenue: $0